sensor_id;sensor_type;location;lat;lon;timestamp;P1;durP1;ratioP1;P2;durP2;ratioP2
20318;SDS011;10317;47.254;11.314;2024-01-27T00:01:32;11.75;;;9.25;;
20318;SDS011;10317;47.254;11.314;2024-01-27T00:03:57;8.57;;;7.57;;
20318;SDS011;10317;47.254;11.314;2024-01-27T00:06:24;11.07;;;7.28;;
20318;SDS011;10317;47.254;11.314;2024-01-27T00:08:49;11.70;;;8.20;;
20318;SDS011;10317;47.254;11.314;2024-01-27T00:11:15;11.40;;;8.25;;
20318;SDS011;10317;47.254;11.314;2024-01-27T00:13:40;10.50;;;6.93;;
20318;SDS011;10317;47.254;11.314;2024-01-27T00:16:06;8.68;;;6.55;;
20318;SDS011;10317;47.254;11.314;2024-01-27T00:18:35;5.63;;;4.63;;
20318;SDS011;10317;47.254;11.314;2024-01-27T00:21:01;4.30;;;3.90;;
20318;SDS011;10317;47.254;11.314;2024-01-27T00:23:27;7.90;;;4.57;;
20318;SDS011;10317;47.254;11.314;2024-01-27T00:25:52;7.57;;;4.47;;
20318;SDS011;10317;47.254;11.314;2024-01-27T00:28:18;5.90;;;4.22;;
20318;SDS011;10317;47.254;11.314;2024-01-27T00:30:44;6.10;;;4.28;;
20318;SDS011;10317;47.254;11.314;2024-01-27T00:33:09;3.95;;;3.65;;
20318;SDS011;10317;47.254;11.314;2024-01-27T00:35:35;3.65;;;3.25;;
20318;SDS011;10317;47.254;11.314;2024-01-27T00:38:00;3.22;;;2.60;;
20318;SDS011;10317;47.254;11.314;2024-01-27T00:40:26;3.17;;;2.88;;
20318;SDS011;10317;47.254;11.314;2024-01-27T00:42:52;4.20;;;2.70;;
20318;SDS011;10317;47.254;11.314;2024-01-27T00:45:19;2.28;;;2.17;;
20318;SDS011;10317;47.254;11.314;2024-01-27T00:47:45;2.53;;;2.30;;
20318;SDS011;10317;47.254;11.314;2024-01-27T00:50:11;2.10;;;2.00;;
20318;SDS011;10317;47.254;11.314;2024-01-27T00:52:36;1.92;;;1.88;;
20318;SDS011;10317;47.254;11.314;2024-01-27T00:55:02;2.10;;;1.90;;
20318;SDS011;10317;47.254;11.314;2024-01-27T00:57:28;4.50;;;1.95;;
20318;SDS011;10317;47.254;11.314;2024-01-27T00:59:54;2.13;;;2.03;;
20318;SDS011;10317;47.254;11.314;2024-01-27T01:02:19;1.75;;;1.73;;
20318;SDS011;10317;47.254;11.314;2024-01-27T01:04:45;1.75;;;1.55;;
20318;SDS011;10317;47.254;11.314;2024-01-27T01:07:11;5.35;;;1.75;;
20318;SDS011;10317;47.254;11.314;2024-01-27T01:09:36;1.58;;;1.50;;
20318;SDS011;10317;47.254;11.314;2024-01-27T01:12:02;1.83;;;1.73;;
20318;SDS011;10317;47.254;11.314;2024-01-27T01:14:28;2.03;;;1.92;;
20318;SDS011;10317;47.254;11.314;2024-01-27T01:16:53;5.47;;;1.95;;
20318;SDS011;10317;47.254;11.314;2024-01-27T01:19:19;4.60;;;1.80;;
20318;SDS011;10317;47.254;11.314;2024-01-27T01:21:45;2.00;;;1.90;;
20318;SDS011;10317;47.254;11.314;2024-01-27T01:24:10;2.35;;;2.00;;
20318;SDS011;10317;47.254;11.314;2024-01-27T01:26:36;1.63;;;1.63;;
20318;SDS011;10317;47.254;11.314;2024-01-27T01:29:02;1.80;;;1.70;;
20318;SDS011;10317;47.254;11.314;2024-01-27T01:31:28;2.17;;;1.95;;
20318;SDS011;10317;47.254;11.314;2024-01-27T01:33:53;2.92;;;1.80;;
20318;SDS011;10317;47.254;11.314;2024-01-27T01:36:19;1.85;;;1.77;;
20318;SDS011;10317;47.254;11.314;2024-01-27T01:38:45;4.00;;;1.88;;
20318;SDS011;10317;47.254;11.314;2024-01-27T01:41:11;1.80;;;1.70;;
20318;SDS011;10317;47.254;11.314;2024-01-27T01:43:36;1.80;;;1.70;;
20318;SDS011;10317;47.254;11.314;2024-01-27T01:46:02;2.30;;;2.13;;
20318;SDS011;10317;47.254;11.314;2024-01-27T01:48:29;5.45;;;2.13;;
20318;SDS011;10317;47.254;11.314;2024-01-27T01:50:54;7.13;;;2.15;;
20318;SDS011;10317;47.254;11.314;2024-01-27T01:53:21;2.90;;;2.00;;
20318;SDS011;10317;47.254;11.314;2024-01-27T01:55:47;2.42;;;2.15;;
20318;SDS011;10317;47.254;11.314;2024-01-27T01:58:15;2.00;;;1.83;;
20318;SDS011;10317;47.254;11.314;2024-01-27T02:00:41;3.50;;;2.55;;
20318;SDS011;10317;47.254;11.314;2024-01-27T02:03:13;3.83;;;2.30;;
20318;SDS011;10317;47.254;11.314;2024-01-27T02:05:39;4.65;;;2.20;;
20318;SDS011;10317;47.254;11.314;2024-01-27T02:08:05;4.60;;;2.15;;
20318;SDS011;10317;47.254;11.314;2024-01-27T02:10:31;1.98;;;1.88;;
20318;SDS011;10317;47.254;11.314;2024-01-27T02:13:02;2.00;;;1.90;;
20318;SDS011;10317;47.254;11.314;2024-01-27T02:15:49;2.15;;;1.85;;
20318;SDS011;10317;47.254;11.314;2024-01-27T02:18:15;2.28;;;2.15;;
20318;SDS011;10317;47.254;11.314;2024-01-27T02:20:42;2.40;;;2.30;;
20318;SDS011;10317;47.254;11.314;2024-01-27T02:23:08;2.10;;;2.00;;
20318;SDS011;10317;47.254;11.314;2024-01-27T02:25:34;2.20;;;2.10;;
20318;SDS011;10317;47.254;11.314;2024-01-27T02:28:00;2.13;;;2.03;;
20318;SDS011;10317;47.254;11.314;2024-01-27T02:30:28;6.00;;;2.67;;
20318;SDS011;10317;47.254;11.314;2024-01-27T02:32:55;2.20;;;2.10;;
20318;SDS011;10317;47.254;11.314;2024-01-27T02:35:22;2.42;;;1.85;;
20318;SDS011;10317;47.254;11.314;2024-01-27T02:37:48;2.00;;;1.67;;
20318;SDS011;10317;47.254;11.314;2024-01-27T02:40:14;2.35;;;2.10;;
20318;SDS011;10317;47.254;11.314;2024-01-27T02:42:39;2.38;;;2.17;;
20318;SDS011;10317;47.254;11.314;2024-01-27T02:45:07;1.80;;;1.70;;
20318;SDS011;10317;47.254;11.314;2024-01-27T02:47:33;2.40;;;2.20;;
20318;SDS011;10317;47.254;11.314;2024-01-27T02:49:59;3.70;;;2.17;;
20318;SDS011;10317;47.254;11.314;2024-01-27T02:52:25;3.15;;;2.00;;
20318;SDS011;10317;47.254;11.314;2024-01-27T02:54:51;3.72;;;2.33;;
20318;SDS011;10317;47.254;11.314;2024-01-27T02:57:16;4.82;;;2.10;;
20318;SDS011;10317;47.254;11.314;2024-01-27T02:59:45;3.05;;;2.28;;
20318;SDS011;10317;47.254;11.314;2024-01-27T03:02:11;2.05;;;1.95;;
20318;SDS011;10317;47.254;11.314;2024-01-27T03:04:36;2.80;;;2.10;;
20318;SDS011;10317;47.254;11.314;2024-01-27T03:07:02;2.33;;;2.10;;
20318;SDS011;10317;47.254;11.314;2024-01-27T03:09:28;3.00;;;2.17;;
20318;SDS011;10317;47.254;11.314;2024-01-27T03:11:54;2.42;;;2.15;;
20318;SDS011;10317;47.254;11.314;2024-01-27T03:14:19;3.03;;;2.72;;
20318;SDS011;10317;47.254;11.314;2024-01-27T03:16:45;2.38;;;2.20;;
20318;SDS011;10317;47.254;11.314;2024-01-27T03:19:10;2.80;;;2.70;;
20318;SDS011;10317;47.254;11.314;2024-01-27T03:21:36;2.10;;;2.00;;
20318;SDS011;10317;47.254;11.314;2024-01-27T03:24:02;1.95;;;1.85;;
20318;SDS011;10317;47.254;11.314;2024-01-27T03:26:28;2.47;;;2.17;;
20318;SDS011;10317;47.254;11.314;2024-01-27T03:28:53;2.25;;;1.98;;
20318;SDS011;10317;47.254;11.314;2024-01-27T03:31:19;2.42;;;2.22;;
20318;SDS011;10317;47.254;11.314;2024-01-27T03:33:45;3.17;;;2.08;;
20318;SDS011;10317;47.254;11.314;2024-01-27T03:36:13;2.42;;;2.17;;
20318;SDS011;10317;47.254;11.314;2024-01-27T03:38:42;2.17;;;2.08;;
20318;SDS011;10317;47.254;11.314;2024-01-27T03:41:08;4.72;;;2.50;;
20318;SDS011;10317;47.254;11.314;2024-01-27T03:43:34;2.20;;;2.10;;
20318;SDS011;10317;47.254;11.314;2024-01-27T03:45:59;2.85;;;2.65;;
20318;SDS011;10317;47.254;11.314;2024-01-27T03:48:26;3.00;;;1.88;;
20318;SDS011;10317;47.254;11.314;2024-01-27T03:50:52;2.13;;;2.03;;
20318;SDS011;10317;47.254;11.314;2024-01-27T03:53:18;4.00;;;2.42;;
20318;SDS011;10317;47.254;11.314;2024-01-27T03:55:43;1.88;;;1.80;;
20318;SDS011;10317;47.254;11.314;2024-01-27T03:58:09;2.40;;;2.20;;
20318;SDS011;10317;47.254;11.314;2024-01-27T04:00:35;2.08;;;1.98;;
20318;SDS011;10317;47.254;11.314;2024-01-27T04:03:00;2.40;;;2.00;;
20318;SDS011;10317;47.254;11.314;2024-01-27T04:05:26;3.58;;;2.10;;
20318;SDS011;10317;47.254;11.314;2024-01-27T04:07:55;1.95;;;1.85;;
20318;SDS011;10317;47.254;11.314;2024-01-27T04:10:21;3.35;;;2.67;;
20318;SDS011;10317;47.254;11.314;2024-01-27T04:12:47;2.22;;;2.00;;
20318;SDS011;10317;47.254;11.314;2024-01-27T04:15:13;2.63;;;2.45;;
20318;SDS011;10317;47.254;11.314;2024-01-27T04:17:39;1.95;;;1.75;;
20318;SDS011;10317;47.254;11.314;2024-01-27T04:20:05;2.33;;;2.13;;
20318;SDS011;10317;47.254;11.314;2024-01-27T04:22:33;2.67;;;2.20;;
20318;SDS011;10317;47.254;11.314;2024-01-27T04:24:59;2.38;;;2.17;;
20318;SDS011;10317;47.254;11.314;2024-01-27T04:27:26;3.45;;;2.38;;
20318;SDS011;10317;47.254;11.314;2024-01-27T04:29:53;2.10;;;2.00;;
20318;SDS011;10317;47.254;11.314;2024-01-27T04:32:18;1.73;;;1.63;;
20318;SDS011;10317;47.254;11.314;2024-01-27T04:34:44;4.90;;;1.80;;
20318;SDS011;10317;47.254;11.314;2024-01-27T04:37:10;2.08;;;1.88;;
20318;SDS011;10317;47.254;11.314;2024-01-27T04:39:35;2.30;;;2.10;;
20318;SDS011;10317;47.254;11.314;2024-01-27T04:42:02;3.50;;;2.38;;
20318;SDS011;10317;47.254;11.314;2024-01-27T04:44:28;2.35;;;2.15;;
20318;SDS011;10317;47.254;11.314;2024-01-27T04:46:53;3.33;;;2.20;;
20318;SDS011;10317;47.254;11.314;2024-01-27T04:49:19;1.73;;;1.63;;
20318;SDS011;10317;47.254;11.314;2024-01-27T04:51:45;2.03;;;1.92;;
20318;SDS011;10317;47.254;11.314;2024-01-27T04:54:10;2.58;;;2.35;;
20318;SDS011;10317;47.254;11.314;2024-01-27T04:56:36;2.58;;;2.47;;
20318;SDS011;10317;47.254;11.314;2024-01-27T04:59:02;2.22;;;2.13;;
20318;SDS011;10317;47.254;11.314;2024-01-27T05:01:27;2.67;;;2.03;;
20318;SDS011;10317;47.254;11.314;2024-01-27T05:03:53;2.55;;;2.35;;
20318;SDS011;10317;47.254;11.314;2024-01-27T05:06:19;2.00;;;1.90;;
20318;SDS011;10317;47.254;11.314;2024-01-27T05:08:45;2.35;;;2.20;;
20318;SDS011;10317;47.254;11.314;2024-01-27T05:11:10;2.00;;;1.90;;
20318;SDS011;10317;47.254;11.314;2024-01-27T05:13:36;1.92;;;1.80;;
20318;SDS011;10317;47.254;11.314;2024-01-27T05:16:05;2.25;;;2.15;;
20318;SDS011;10317;47.254;11.314;2024-01-27T05:18:31;3.30;;;2.50;;
20318;SDS011;10317;47.254;11.314;2024-01-27T05:20:56;2.30;;;2.20;;
20318;SDS011;10317;47.254;11.314;2024-01-27T05:23:22;2.25;;;2.13;;
20318;SDS011;10317;47.254;11.314;2024-01-27T05:25:48;2.05;;;1.95;;
20318;SDS011;10317;47.254;11.314;2024-01-27T05:28:14;1.98;;;1.85;;
20318;SDS011;10317;47.254;11.314;2024-01-27T05:30:39;2.80;;;1.92;;
20318;SDS011;10317;47.254;11.314;2024-01-27T05:33:05;2.40;;;2.17;;
20318;SDS011;10317;47.254;11.314;2024-01-27T05:35:31;1.98;;;1.77;;
20318;SDS011;10317;47.254;11.314;2024-01-27T05:37:56;2.45;;;2.25;;
20318;SDS011;10317;47.254;11.314;2024-01-27T05:40:22;2.38;;;2.10;;
20318;SDS011;10317;47.254;11.314;2024-01-27T05:42:48;2.45;;;2.25;;
20318;SDS011;10317;47.254;11.314;2024-01-27T05:45:14;2.63;;;2.42;;
20318;SDS011;10317;47.254;11.314;2024-01-27T05:47:40;2.92;;;2.30;;
20318;SDS011;10317;47.254;11.314;2024-01-27T05:50:06;2.15;;;1.95;;
20318;SDS011;10317;47.254;11.314;2024-01-27T05:52:33;2.65;;;2.15;;
20318;SDS011;10317;47.254;11.314;2024-01-27T05:55:00;3.67;;;2.50;;
20318;SDS011;10317;47.254;11.314;2024-01-27T05:57:26;2.22;;;2.03;;
20318;SDS011;10317;47.254;11.314;2024-01-27T05:59:51;1.90;;;1.90;;
20318;SDS011;10317;47.254;11.314;2024-01-27T06:02:17;3.00;;;2.83;;
20318;SDS011;10317;47.254;11.314;2024-01-27T06:04:43;1.92;;;1.90;;
20318;SDS011;10317;47.254;11.314;2024-01-27T06:07:09;2.80;;;2.20;;
20318;SDS011;10317;47.254;11.314;2024-01-27T06:09:36;2.20;;;2.10;;
20318;SDS011;10317;47.254;11.314;2024-01-27T06:12:02;2.35;;;2.25;;
20318;SDS011;10317;47.254;11.314;2024-01-27T06:14:28;2.28;;;2.17;;
20318;SDS011;10317;47.254;11.314;2024-01-27T06:16:54;2.30;;;2.20;;
20318;SDS011;10317;47.254;11.314;2024-01-27T06:19:20;2.78;;;2.20;;
20318;SDS011;10317;47.254;11.314;2024-01-27T06:21:45;5.35;;;2.53;;
20318;SDS011;10317;47.254;11.314;2024-01-27T06:24:11;2.70;;;2.50;;
20318;SDS011;10317;47.254;11.314;2024-01-27T06:26:37;6.50;;;3.08;;
20318;SDS011;10317;47.254;11.314;2024-01-27T06:29:02;3.25;;;2.95;;
20318;SDS011;10317;47.254;11.314;2024-01-27T06:31:29;3.47;;;2.38;;
20318;SDS011;10317;47.254;11.314;2024-01-27T06:33:55;3.63;;;2.67;;
20318;SDS011;10317;47.254;11.314;2024-01-27T06:36:20;2.50;;;2.30;;
20318;SDS011;10317;47.254;11.314;2024-01-27T06:38:49;5.18;;;2.35;;
20318;SDS011;10317;47.254;11.314;2024-01-27T06:41:15;4.68;;;2.53;;
20318;SDS011;10317;47.254;11.314;2024-01-27T06:43:42;5.30;;;2.75;;
20318;SDS011;10317;47.254;11.314;2024-01-27T06:46:07;4.28;;;2.50;;
20318;SDS011;10317;47.254;11.314;2024-01-27T06:48:33;2.72;;;2.53;;
20318;SDS011;10317;47.254;11.314;2024-01-27T06:50:59;2.20;;;2.08;;
20318;SDS011;10317;47.254;11.314;2024-01-27T06:53:25;2.83;;;2.63;;
20318;SDS011;10317;47.254;11.314;2024-01-27T06:55:51;3.53;;;2.72;;
20318;SDS011;10317;47.254;11.314;2024-01-27T06:58:16;2.50;;;2.40;;
20318;SDS011;10317;47.254;11.314;2024-01-27T07:00:42;2.88;;;2.60;;
20318;SDS011;10317;47.254;11.314;2024-01-27T07:03:07;2.92;;;2.72;;
20318;SDS011;10317;47.254;11.314;2024-01-27T07:05:33;2.85;;;2.65;;
20318;SDS011;10317;47.254;11.314;2024-01-27T07:08:04;4.07;;;2.63;;
20318;SDS011;10317;47.254;11.314;2024-01-27T07:10:31;2.90;;;2.42;;
20318;SDS011;10317;47.254;11.314;2024-01-27T07:12:57;3.00;;;2.50;;
20318;SDS011;10317;47.254;11.314;2024-01-27T07:15:22;2.47;;;2.38;;
20318;SDS011;10317;47.254;11.314;2024-01-27T07:17:48;5.38;;;2.50;;
20318;SDS011;10317;47.254;11.314;2024-01-27T07:20:14;3.63;;;3.35;;
20318;SDS011;10317;47.254;11.314;2024-01-27T07:22:41;2.60;;;2.40;;
20318;SDS011;10317;47.254;11.314;2024-01-27T07:25:07;4.35;;;2.75;;
20318;SDS011;10317;47.254;11.314;2024-01-27T07:27:35;3.58;;;3.25;;
20318;SDS011;10317;47.254;11.314;2024-01-27T07:30:01;3.38;;;2.42;;
20318;SDS011;10317;47.254;11.314;2024-01-27T07:32:27;3.67;;;2.63;;
20318;SDS011;10317;47.254;11.314;2024-01-27T07:34:53;4.32;;;2.70;;
20318;SDS011;10317;47.254;11.314;2024-01-27T07:37:18;2.80;;;2.60;;
20318;SDS011;10317;47.254;11.314;2024-01-27T07:39:46;5.22;;;3.13;;
20318;SDS011;10317;47.254;11.314;2024-01-27T07:42:11;3.58;;;2.50;;
20318;SDS011;10317;47.254;11.314;2024-01-27T07:44:37;6.65;;;2.83;;
20318;SDS011;10317;47.254;11.314;2024-01-27T07:47:03;4.43;;;3.00;;
20318;SDS011;10317;47.254;11.314;2024-01-27T07:49:29;2.60;;;2.50;;
20318;SDS011;10317;47.254;11.314;2024-01-27T07:51:54;5.43;;;2.83;;
20318;SDS011;10317;47.254;11.314;2024-01-27T07:54:20;3.08;;;2.83;;
20318;SDS011;10317;47.254;11.314;2024-01-27T07:56:46;4.80;;;3.03;;
20318;SDS011;10317;47.254;11.314;2024-01-27T07:59:12;5.30;;;2.80;;
20318;SDS011;10317;47.254;11.314;2024-01-27T08:01:42;3.47;;;3.10;;
20318;SDS011;10317;47.254;11.314;2024-01-27T08:04:08;2.90;;;2.70;;
20318;SDS011;10317;47.254;11.314;2024-01-27T08:06:34;2.92;;;2.78;;
20318;SDS011;10317;47.254;11.314;2024-01-27T08:09:10;4.72;;;2.92;;
20318;SDS011;10317;47.254;11.314;2024-01-27T08:11:36;5.13;;;3.05;;
20318;SDS011;10317;47.254;11.314;2024-01-27T08:14:02;4.82;;;2.90;;
20318;SDS011;10317;47.254;11.314;2024-01-27T08:16:28;7.63;;;4.05;;
20318;SDS011;10317;47.254;11.314;2024-01-27T08:18:53;4.20;;;3.70;;
20318;SDS011;10317;47.254;11.314;2024-01-27T08:21:19;4.30;;;3.55;;
20318;SDS011;10317;47.254;11.314;2024-01-27T08:23:45;9.27;;;4.63;;
20318;SDS011;10317;47.254;11.314;2024-01-27T08:26:10;5.53;;;4.20;;
20318;SDS011;10317;47.254;11.314;2024-01-27T08:28:36;6.47;;;4.18;;
20318;SDS011;10317;47.254;11.314;2024-01-27T08:31:02;4.72;;;4.25;;
20318;SDS011;10317;47.254;11.314;2024-01-27T08:33:28;7.72;;;4.22;;
20318;SDS011;10317;47.254;11.314;2024-01-27T08:35:54;7.70;;;3.95;;
20318;SDS011;10317;47.254;11.314;2024-01-27T08:38:19;6.40;;;4.00;;
20318;SDS011;10317;47.254;11.314;2024-01-27T08:40:45;12.27;;;4.97;;
20318;SDS011;10317;47.254;11.314;2024-01-27T08:43:10;4.63;;;3.70;;
20318;SDS011;10317;47.254;11.314;2024-01-27T08:45:39;5.60;;;4.03;;
20318;SDS011;10317;47.254;11.314;2024-01-27T08:48:05;6.00;;;3.97;;
20318;SDS011;10317;47.254;11.314;2024-01-27T08:50:32;9.25;;;3.72;;
20318;SDS011;10317;47.254;11.314;2024-01-27T08:52:58;5.88;;;4.53;;
20318;SDS011;10317;47.254;11.314;2024-01-27T08:55:23;5.03;;;4.13;;
20318;SDS011;10317;47.254;11.314;2024-01-27T08:57:49;6.68;;;4.60;;
20318;SDS011;10317;47.254;11.314;2024-01-27T09:00:15;8.82;;;4.47;;
20318;SDS011;10317;47.254;11.314;2024-01-27T09:02:42;7.93;;;4.38;;
20318;SDS011;10317;47.254;11.314;2024-01-27T09:05:08;9.23;;;5.40;;
20318;SDS011;10317;47.254;11.314;2024-01-27T09:07:34;5.47;;;4.20;;
20318;SDS011;10317;47.254;11.314;2024-01-27T09:10:00;4.68;;;4.05;;
20318;SDS011;10317;47.254;11.314;2024-01-27T09:12:26;4.68;;;4.05;;
20318;SDS011;10317;47.254;11.314;2024-01-27T09:14:51;6.18;;;4.07;;
20318;SDS011;10317;47.254;11.314;2024-01-27T09:17:19;4.53;;;4.07;;
20318;SDS011;10317;47.254;11.314;2024-01-27T09:19:45;9.80;;;4.68;;
20318;SDS011;10317;47.254;11.314;2024-01-27T09:22:10;8.80;;;4.28;;
20318;SDS011;10317;47.254;11.314;2024-01-27T09:24:36;10.05;;;4.88;;
20318;SDS011;10317;47.254;11.314;2024-01-27T09:27:02;5.00;;;4.22;;
20318;SDS011;10317;47.254;11.314;2024-01-27T09:29:29;10.10;;;6.07;;
20318;SDS011;10317;47.254;11.314;2024-01-27T09:31:54;5.55;;;4.85;;
20318;SDS011;10317;47.254;11.314;2024-01-27T09:34:20;7.10;;;4.18;;
20318;SDS011;10317;47.254;11.314;2024-01-27T09:36:46;6.97;;;4.80;;
20318;SDS011;10317;47.254;11.314;2024-01-27T09:39:11;10.27;;;4.78;;
20318;SDS011;10317;47.254;11.314;2024-01-27T09:41:37;7.30;;;4.65;;
20318;SDS011;10317;47.254;11.314;2024-01-27T09:44:03;12.02;;;5.43;;
20318;SDS011;10317;47.254;11.314;2024-01-27T09:46:30;6.18;;;4.63;;
20318;SDS011;10317;47.254;11.314;2024-01-27T09:48:56;6.18;;;5.20;;
20318;SDS011;10317;47.254;11.314;2024-01-27T09:51:23;10.85;;;5.85;;
20318;SDS011;10317;47.254;11.314;2024-01-27T09:53:49;5.10;;;4.60;;
20318;SDS011;10317;47.254;11.314;2024-01-27T09:56:16;6.47;;;5.18;;
20318;SDS011;10317;47.254;11.314;2024-01-27T09:58:46;7.43;;;4.88;;
20318;SDS011;10317;47.254;11.314;2024-01-27T10:01:12;8.27;;;4.93;;
20318;SDS011;10317;47.254;11.314;2024-01-27T10:03:40;8.63;;;4.65;;
20318;SDS011;10317;47.254;11.314;2024-01-27T10:06:09;5.82;;;4.07;;
20318;SDS011;10317;47.254;11.314;2024-01-27T10:08:35;6.57;;;4.80;;
20318;SDS011;10317;47.254;11.314;2024-01-27T10:11:08;5.70;;;3.83;;
20318;SDS011;10317;47.254;11.314;2024-01-27T10:13:35;8.23;;;3.78;;
20318;SDS011;10317;47.254;11.314;2024-01-27T10:16:05;4.57;;;3.75;;
20318;SDS011;10317;47.254;11.314;2024-01-27T10:18:32;3.58;;;2.90;;
20318;SDS011;10317;47.254;11.314;2024-01-27T10:20:59;8.50;;;3.63;;
20318;SDS011;10317;47.254;11.314;2024-01-27T10:23:25;3.70;;;3.08;;
20318;SDS011;10317;47.254;11.314;2024-01-27T10:25:51;3.05;;;2.85;;
20318;SDS011;10317;47.254;11.314;2024-01-27T10:28:17;4.22;;;3.33;;
20318;SDS011;10317;47.254;11.314;2024-01-27T10:30:43;7.20;;;3.50;;
20318;SDS011;10317;47.254;11.314;2024-01-27T10:33:10;7.35;;;3.55;;
20318;SDS011;10317;47.254;11.314;2024-01-27T10:35:38;4.50;;;3.72;;
20318;SDS011;10317;47.254;11.314;2024-01-27T10:38:04;3.90;;;3.42;;
20318;SDS011;10317;47.254;11.314;2024-01-27T10:40:30;6.03;;;3.67;;
20318;SDS011;10317;47.254;11.314;2024-01-27T10:45:35;6.35;;;3.92;;
20318;SDS011;10317;47.254;11.314;2024-01-27T10:48:06;4.78;;;3.75;;
20318;SDS011;10317;47.254;11.314;2024-01-27T10:50:35;4.85;;;3.88;;
20318;SDS011;10317;47.254;11.314;2024-01-27T10:53:05;5.13;;;3.58;;
20318;SDS011;10317;47.254;11.314;2024-01-27T10:55:34;4.00;;;3.67;;
20318;SDS011;10317;47.254;11.314;2024-01-27T10:58:02;5.28;;;3.42;;
20318;SDS011;10317;47.254;11.314;2024-01-27T11:00:29;3.85;;;3.50;;
20318;SDS011;10317;47.254;11.314;2024-01-27T11:02:58;4.55;;;3.45;;
20318;SDS011;10317;47.254;11.314;2024-01-27T11:05:26;4.60;;;3.72;;
20318;SDS011;10317;47.254;11.314;2024-01-27T11:07:53;3.38;;;3.05;;
20318;SDS011;10317;47.254;11.314;2024-01-27T11:10:20;5.93;;;2.83;;
20318;SDS011;10317;47.254;11.314;2024-01-27T11:12:46;2.97;;;2.55;;
20318;SDS011;10317;47.254;11.314;2024-01-27T11:15:12;5.30;;;2.90;;
20318;SDS011;10317;47.254;11.314;2024-01-27T11:17:39;4.43;;;2.83;;
20318;SDS011;10317;47.254;11.314;2024-01-27T11:20:07;4.63;;;3.10;;
20318;SDS011;10317;47.254;11.314;2024-01-27T11:22:36;4.45;;;2.65;;
20318;SDS011;10317;47.254;11.314;2024-01-27T11:27:37;3.92;;;2.75;;
20318;SDS011;10317;47.254;11.314;2024-01-27T11:30:08;5.32;;;2.80;;
20318;SDS011;10317;47.254;11.314;2024-01-27T11:32:53;2.55;;;2.35;;
20318;SDS011;10317;47.254;11.314;2024-01-27T11:35:22;3.13;;;2.60;;
20318;SDS011;10317;47.254;11.314;2024-01-27T11:37:51;3.05;;;2.67;;
20318;SDS011;10317;47.254;11.314;2024-01-27T11:40:17;3.90;;;2.53;;
20318;SDS011;10317;47.254;11.314;2024-01-27T11:42:43;3.08;;;1.88;;
20318;SDS011;10317;47.254;11.314;2024-01-27T11:45:09;4.63;;;2.15;;
20318;SDS011;10317;47.254;11.314;2024-01-27T11:47:35;3.15;;;2.17;;
20318;SDS011;10317;47.254;11.314;2024-01-27T11:50:01;2.20;;;1.95;;
20318;SDS011;10317;47.254;11.314;2024-01-27T11:52:28;2.33;;;1.90;;
20318;SDS011;10317;47.254;11.314;2024-01-27T11:54:54;1.83;;;1.45;;
20318;SDS011;10317;47.254;11.314;2024-01-27T11:57:24;4.10;;;1.67;;
20318;SDS011;10317;47.254;11.314;2024-01-27T11:59:51;2.50;;;1.70;;
20318;SDS011;10317;47.254;11.314;2024-01-27T12:02:17;3.75;;;1.48;;
20318;SDS011;10317;47.254;11.314;2024-01-27T12:04:43;1.95;;;1.83;;
20318;SDS011;10317;47.254;11.314;2024-01-27T12:07:09;3.15;;;1.88;;
20318;SDS011;10317;47.254;11.314;2024-01-27T12:09:35;2.15;;;1.90;;
20318;SDS011;10317;47.254;11.314;2024-01-27T12:12:02;5.70;;;2.03;;
20318;SDS011;10317;47.254;11.314;2024-01-27T12:14:38;3.20;;;2.15;;
20318;SDS011;10317;47.254;11.314;2024-01-27T12:17:11;2.00;;;1.80;;
20318;SDS011;10317;47.254;11.314;2024-01-27T12:19:37;1.55;;;1.52;;
20318;SDS011;10317;47.254;11.314;2024-01-27T12:22:03;2.72;;;1.80;;
20318;SDS011;10317;47.254;11.314;2024-01-27T12:24:30;1.40;;;1.40;;
20318;SDS011;10317;47.254;11.314;2024-01-27T12:26:59;1.88;;;1.77;;
20318;SDS011;10317;47.254;11.314;2024-01-27T12:29:25;2.15;;;1.63;;
20318;SDS011;10317;47.254;11.314;2024-01-27T12:31:50;1.60;;;1.48;;
20318;SDS011;10317;47.254;11.314;2024-01-27T12:34:17;1.45;;;1.40;;
20318;SDS011;10317;47.254;11.314;2024-01-27T12:36:44;1.63;;;1.52;;
20318;SDS011;10317;47.254;11.314;2024-01-27T12:39:10;1.52;;;1.52;;
20318;SDS011;10317;47.254;11.314;2024-01-27T12:41:36;2.00;;;1.60;;
20318;SDS011;10317;47.254;11.314;2024-01-27T12:44:01;1.80;;;1.70;;
20318;SDS011;10317;47.254;11.314;2024-01-27T12:46:28;1.73;;;1.58;;
20318;SDS011;10317;47.254;11.314;2024-01-27T12:48:53;1.77;;;1.67;;
20318;SDS011;10317;47.254;11.314;2024-01-27T12:51:19;1.27;;;1.27;;
20318;SDS011;10317;47.254;11.314;2024-01-27T12:53:45;1.27;;;1.27;;
20318;SDS011;10317;47.254;11.314;2024-01-27T12:56:13;1.55;;;1.45;;
20318;SDS011;10317;47.254;11.314;2024-01-27T12:58:40;2.65;;;1.40;;
20318;SDS011;10317;47.254;11.314;2024-01-27T13:01:06;1.98;;;1.88;;
20318;SDS011;10317;47.254;11.314;2024-01-27T13:03:33;1.65;;;1.55;;
20318;SDS011;10317;47.254;11.314;2024-01-27T13:05:59;3.35;;;2.03;;
20318;SDS011;10317;47.254;11.314;2024-01-27T13:08:25;1.40;;;1.40;;
20318;SDS011;10317;47.254;11.314;2024-01-27T13:10:51;1.75;;;1.67;;
20318;SDS011;10317;47.254;11.314;2024-01-27T13:13:16;2.38;;;1.33;;
20318;SDS011;10317;47.254;11.314;2024-01-27T13:15:42;1.85;;;1.70;;
20318;SDS011;10317;47.254;11.314;2024-01-27T13:18:09;2.20;;;1.90;;
20318;SDS011;10317;47.254;11.314;2024-01-27T13:20:35;2.00;;;1.90;;
20318;SDS011;10317;47.254;11.314;2024-01-27T13:23:01;1.83;;;1.70;;
20318;SDS011;10317;47.254;11.314;2024-01-27T13:25:27;1.90;;;1.80;;
20318;SDS011;10317;47.254;11.314;2024-01-27T13:27:53;1.75;;;1.65;;
20318;SDS011;10317;47.254;11.314;2024-01-27T13:30:18;1.80;;;1.40;;
20318;SDS011;10317;47.254;11.314;2024-01-27T13:32:44;3.55;;;1.45;;
20318;SDS011;10317;47.254;11.314;2024-01-27T13:35:10;1.70;;;1.60;;
20318;SDS011;10317;47.254;11.314;2024-01-27T13:37:36;1.33;;;1.30;;
20318;SDS011;10317;47.254;11.314;2024-01-27T13:40:02;1.58;;;1.42;;
20318;SDS011;10317;47.254;11.314;2024-01-27T13:42:29;1.23;;;1.20;;
20318;SDS011;10317;47.254;11.314;2024-01-27T13:44:55;1.30;;;1.20;;
20318;SDS011;10317;47.254;11.314;2024-01-27T13:47:21;1.63;;;1.52;;
20318;SDS011;10317;47.254;11.314;2024-01-27T13:49:47;1.17;;;1.13;;
20318;SDS011;10317;47.254;11.314;2024-01-27T13:52:13;1.85;;;1.40;;
20318;SDS011;10317;47.254;11.314;2024-01-27T13:54:39;1.50;;;1.48;;
20318;SDS011;10317;47.254;11.314;2024-01-27T13:57:04;1.40;;;1.30;;
20318;SDS011;10317;47.254;11.314;2024-01-27T13:59:30;1.40;;;1.30;;
20318;SDS011;10317;47.254;11.314;2024-01-27T14:01:57;1.33;;;1.33;;
20318;SDS011;10317;47.254;11.314;2024-01-27T14:04:23;2.20;;;1.30;;
20318;SDS011;10317;47.254;11.314;2024-01-27T14:06:50;1.25;;;1.25;;
20318;SDS011;10317;47.254;11.314;2024-01-27T14:09:18;1.80;;;1.70;;
20318;SDS011;10317;47.254;11.314;2024-01-27T14:11:44;2.03;;;1.35;;
20318;SDS011;10317;47.254;11.314;2024-01-27T14:14:10;1.73;;;1.63;;
20318;SDS011;10317;47.254;11.314;2024-01-27T14:16:35;1.50;;;1.40;;
20318;SDS011;10317;47.254;11.314;2024-01-27T14:19:01;1.73;;;1.70;;
20318;SDS011;10317;47.254;11.314;2024-01-27T14:21:27;1.58;;;1.58;;
20318;SDS011;10317;47.254;11.314;2024-01-27T14:23:53;2.10;;;2.00;;
20318;SDS011;10317;47.254;11.314;2024-01-27T14:26:26;1.95;;;1.73;;
20318;SDS011;10317;47.254;11.314;2024-01-27T14:28:53;1.83;;;1.73;;
20318;SDS011;10317;47.254;11.314;2024-01-27T14:31:19;2.25;;;2.10;;
20318;SDS011;10317;47.254;11.314;2024-01-27T14:33:45;4.05;;;2.10;;